Time;durP1;ratioP1;P1;durP2;ratioP2;P2;SDS_P1;SDS_P2;PMS_P1;PMS_P2;Temp;Humidity;BMP_temperature;BMP_pressure;BME280_temperature;BME280_humidity;BME280_pressure;Samples;Min_cycle;Max_cycle;Signal;HPM_P1;HPM_P2
2024/04/05 00:01:55;;;;;;;2.17;0.80;;;;;;;;;;4997635;28;20045;-78
2024/04/05 00:04:20;;;;;;;5.13;1.00;;;;;;;;;;4989257;28;20137;-76
2024/04/05 00:06:45;;;;;;;4.63;0.85;;;;;;;;;;4991537;28;20216;-77
2024/04/05 00:09:11;;;;;;;5.43;1.10;;;;;;;;;;4978305;28;20053;-77
2024/04/05 00:11:36;;;;;;;4.07;1.08;;;;;;;;;;4987366;28;20041;-77
2024/04/05 00:14:02;;;;;;;3.28;0.80;;;;;;;;;;4993347;28;20093;-78
2024/04/05 00:16:28;;;;;;;3.22;0.80;;;;;;;;;;4999255;28;20108;-77
2024/04/05 00:18:55;;;;;;;2.80;1.00;;;;;;;;;;4996202;28;20507;-78
2024/04/05 00:21:20;;;;;;;7.93;1.42;;;;;;;;;;4991675;28;20044;-78
2024/04/05 00:23:46;;;;;;;4.55;1.20;;;;;;;;;;5005663;28;20041;-78
2024/04/05 00:26:11;;;;;;;2.85;0.85;;;;;;;;;;4986092;28;20048;-78
2024/04/05 00:28:36;;;;;;;4.07;1.10;;;;;;;;;;5000575;28;20124;-78
2024/04/05 00:31:04;;;;;;;5.65;1.90;;;;;;;;;;4987216;28;20029;-78
2024/04/05 00:33:30;;;;;;;3.70;1.10;;;;;;;;;;4985249;28;20042;-78
2024/04/05 00:35:56;;;;;;;4.53;1.02;;;;;;;;;;4993213;28;20041;-77
2024/04/05 00:38:23;;;;;;;2.22;0.80;;;;;;;;;;4979246;28;20045;-77
2024/04/05 00:40:49;;;;;;;4.72;1.30;;;;;;;;;;4987319;28;20811;-77
2024/04/05 00:43:15;;;;;;;6.70;0.85;;;;;;;;;;4977652;28;20049;-78
2024/04/05 00:45:42;;;;;;;3.97;1.15;;;;;;;;;;4979222;28;20121;-77
2024/04/05 00:48:09;;;;;;;3.97;0.90;;;;;;;;;;4978559;28;20054;-78
2024/04/05 00:50:36;;;;;;;4.30;1.30;;;;;;;;;;4978926;28;20053;-78
2024/04/05 00:53:02;;;;;;;2.10;0.63;;;;;;;;;;4979248;28;20046;-78
2024/04/05 00:55:30;;;;;;;4.38;1.08;;;;;;;;;;4990488;28;20034;-77
2024/04/05 00:58:00;;;;;;;2.05;1.23;;;;;;;;;;4984253;28;20038;-77
2024/04/05 01:00:29;;;;;;;3.30;1.23;;;;;;;;;;4994114;28;20148;-77
2024/04/05 01:02:54;;;;;;;2.95;1.10;;;;;;;;;;4990264;28;20458;-78
2024/04/05 01:05:20;;;;;;;2.13;0.68;;;;;;;;;;4983310;28;20042;-78
2024/04/05 01:07:48;;;;;;;4.65;1.40;;;;;;;;;;4989680;28;20057;-77
2024/04/05 01:10:13;;;;;;;1.55;0.80;;;;;;;;;;4981766;28;20030;-78
2024/04/05 01:12:39;;;;;;;5.10;1.00;;;;;;;;;;4978331;28;20173;-77
2024/04/05 01:15:05;;;;;;;2.53;0.73;;;;;;;;;;4989258;28;20097;-78
2024/04/05 01:17:31;;;;;;;0.77;0.50;;;;;;;;;;4988223;28;20411;-78
2024/04/05 01:19:58;;;;;;;7.88;0.98;;;;;;;;;;4981142;28;20030;-77
2024/04/05 01:22:29;;;;;;;5.85;1.20;;;;;;;;;;4977250;28;20041;-77
2024/04/05 01:24:54;;;;;;;6.28;1.40;;;;;;;;;;4990157;28;20034;-77
2024/04/05 01:27:20;;;;;;;3.20;1.00;;;;;;;;;;4991888;28;20047;-77
2024/04/05 01:29:45;;;;;;;3.40;1.45;;;;;;;;;;4995131;28;20041;-77
2024/04/05 01:32:10;;;;;;;4.97;1.08;;;;;;;;;;4982252;28;20053;-77
2024/04/05 01:34:36;;;;;;;6.60;1.27;;;;;;;;;;4969475;28;20035;-77
2024/04/05 01:37:01;;;;;;;8.10;1.17;;;;;;;;;;4974720;28;20042;-77
2024/04/05 01:39:27;;;;;;;3.40;1.48;;;;;;;;;;4975330;28;20632;-77
2024/04/05 01:41:52;;;;;;;5.60;1.05;;;;;;;;;;4966827;28;20068;-77
2024/04/05 01:44:17;;;;;;;4.93;1.00;;;;;;;;;;5009304;28;20556;-77
2024/04/05 01:46:43;;;;;;;2.65;0.73;;;;;;;;;;5004212;28;20658;-77
2024/04/05 01:49:08;;;;;;;1.63;0.65;;;;;;;;;;4994860;28;20053;-78
2024/04/05 01:51:33;;;;;;;4.22;1.00;;;;;;;;;;4985200;28;20034;-78
2024/04/05 01:53:59;;;;;;;3.80;1.27;;;;;;;;;;4987468;28;20046;-77
2024/04/05 01:56:24;;;;;;;8.07;0.88;;;;;;;;;;4998442;28;20030;-77
2024/04/05 01:58:49;;;;;;;4.85;1.00;;;;;;;;;;4980434;28;20443;-77
2024/04/05 02:01:15;;;;;;;4.68;1.17;;;;;;;;;;4995054;28;20050;-77
2024/04/05 02:03:40;;;;;;;4.88;1.20;;;;;;;;;;4983063;28;20037;-77
2024/04/05 02:06:14;;;;;;;5.00;1.27;;;;;;;;;;4991124;28;20044;-77
2024/04/05 02:08:40;;;;;;;4.45;1.02;;;;;;;;;;4977005;28;20077;-77
2024/04/05 02:11:05;;;;;;;3.33;0.75;;;;;;;;;;4989186;28;20420;-77
2024/04/05 02:13:30;;;;;;;3.58;0.82;;;;;;;;;;4997006;28;20662;-78
2024/04/05 02:15:56;;;;;;;3.72;0.98;;;;;;;;;;4992243;28;20493;-77
2024/04/05 02:18:21;;;;;;;3.20;1.33;;;;;;;;;;4974219;28;20085;-78
2024/04/05 02:20:55;;;;;;;2.28;1.02;;;;;;;;;;4983877;28;20519;-78
2024/04/05 02:23:20;;;;;;;3.75;0.90;;;;;;;;;;4985201;28;20046;-78
2024/04/05 02:25:46;;;;;;;1.30;1.02;;;;;;;;;;4999000;28;20037;-77
2024/04/05 02:28:11;;;;;;;3.78;1.27;;;;;;;;;;4964993;28;20052;-77
2024/04/05 02:30:40;;;;;;;2.55;1.20;;;;;;;;;;4994855;28;20585;-77
2024/04/05 02:33:05;;;;;;;5.05;1.73;;;;;;;;;;4967241;28;20053;-77
2024/04/05 02:35:31;;;;;;;4.05;0.95;;;;;;;;;;4997950;28;20045;-77
2024/04/05 02:37:57;;;;;;;3.42;1.40;;;;;;;;;;4988225;28;20681;-77
2024/04/05 02:40:22;;;;;;;1.67;0.80;;;;;;;;;;4997259;28;20037;-77
2024/04/05 02:42:48;;;;;;;1.35;0.90;;;;;;;;;;4991061;28;20080;-77
2024/04/05 02:45:13;;;;;;;1.77;0.90;;;;;;;;;;4993908;28;20045;-77
2024/04/05 02:47:39;;;;;;;1.17;0.77;;;;;;;;;;4991531;28;20053;-77
2024/04/05 02:50:05;;;;;;;7.05;1.25;;;;;;;;;;4990768;28;20526;-77
2024/04/05 02:52:30;;;;;;;2.60;0.90;;;;;;;;;;4999750;28;20029;-77
2024/04/05 02:54:55;;;;;;;5.15;1.10;;;;;;;;;;4994210;28;20038;-77
2024/04/05 02:57:21;;;;;;;4.03;1.05;;;;;;;;;;5003346;28;20045;-78
2024/04/05 02:59:46;;;;;;;2.08;0.50;;;;;;;;;;4974486;28;20057;-78
2024/04/05 03:02:12;;;;;;;3.35;0.95;;;;;;;;;;4988262;28;20522;-77
2024/04/05 03:04:37;;;;;;;3.75;1.02;;;;;;;;;;4993570;28;20580;-77
2024/04/05 03:07:03;;;;;;;4.00;1.30;;;;;;;;;;4955145;28;20121;-78
2024/04/05 03:09:29;;;;;;;6.55;1.80;;;;;;;;;;4999476;28;20074;-77
2024/04/05 03:11:54;;;;;;;1.83;0.60;;;;;;;;;;4994172;28;20072;-78
2024/04/05 03:14:19;;;;;;;4.07;1.10;;;;;;;;;;5003174;28;20122;-78
2024/04/05 03:16:45;;;;;;;9.40;1.52;;;;;;;;;;5001118;28;20041;-77
2024/04/05 03:19:10;;;;;;;5.53;1.10;;;;;;;;;;4992120;28;20042;-78
2024/04/05 03:21:36;;;;;;;2.53;0.52;;;;;;;;;;4990826;28;20029;-77
2024/04/05 03:24:01;;;;;;;1.40;0.60;;;;;;;;;;4988867;28;20053;-78
2024/04/05 03:26:26;;;;;;;3.92;1.23;;;;;;;;;;5006554;28;20655;-77
2024/04/05 03:28:52;;;;;;;2.90;1.20;;;;;;;;;;5008198;28;20044;-77
2024/04/05 03:31:18;;;;;;;3.92;1.27;;;;;;;;;;5005401;28;20123;-77
2024/04/05 03:33:43;;;;;;;2.13;0.90;;;;;;;;;;5003882;28;20029;-77
2024/04/05 03:36:09;;;;;;;2.33;1.13;;;;;;;;;;4996010;28;20096;-78
2024/04/05 03:38:35;;;;;;;4.15;1.52;;;;;;;;;;4991340;28;20616;-78
2024/04/05 03:41:02;;;;;;;0.98;0.80;;;;;;;;;;4942634;28;20038;-78
2024/04/05 03:43:27;;;;;;;4.38;1.40;;;;;;;;;;4992406;28;20052;-77
2024/04/05 03:45:52;;;;;;;2.72;1.30;;;;;;;;;;4991460;28;20534;-77
2024/04/05 03:48:18;;;;;;;3.33;0.93;;;;;;;;;;4986358;28;20041;-77
2024/04/05 03:50:43;;;;;;;3.28;1.08;;;;;;;;;;4998749;28;20038;-77
2024/04/05 03:53:08;;;;;;;3.83;1.23;;;;;;;;;;4992872;28;20042;-77
2024/04/05 03:55:34;;;;;;;3.47;1.50;;;;;;;;;;4986389;28;20038;-76
2024/04/05 03:57:59;;;;;;;5.75;1.42;;;;;;;;;;4980743;28;20056;-77
2024/04/05 04:00:24;;;;;;;1.42;0.73;;;;;;;;;;4978252;28;20116;-76
2024/04/05 04:02:51;;;;;;;2.28;0.98;;;;;;;;;;4981019;28;20515;-77
2024/04/05 04:05:17;;;;;;;2.55;1.10;;;;;;;;;;4976665;28;20701;-77
2024/04/05 04:07:42;;;;;;;2.45;1.40;;;;;;;;;;5000012;28;20149;-75
2024/04/05 04:10:07;;;;;;;3.65;1.77;;;;;;;;;;5000988;28;20045;-76
2024/04/05 04:12:33;;;;;;;5.72;1.60;;;;;;;;;;4997282;28;20157;-77
2024/04/05 04:14:58;;;;;;;4.38;1.40;;;;;;;;;;5000139;28;20047;-77
2024/04/05 04:17:23;;;;;;;5.03;2.03;;;;;;;;;;4981169;28;20036;-76
2024/04/05 04:19:49;;;;;;;2.67;1.45;;;;;;;;;;4995003;28;20042;-77
2024/04/05 04:22:14;;;;;;;4.78;1.70;;;;;;;;;;4993939;28;20045;-75
2024/04/05 04:24:40;;;;;;;3.00;1.52;;;;;;;;;;4980739;28;20084;-76
2024/04/05 04:27:07;;;;;;;5.75;2.90;;;;;;;;;;4996568;28;20042;-76
2024/04/05 04:29:33;;;;;;;5.82;2.47;;;;;;;;;;4983559;28;20121;-77
2024/04/05 04:31:59;;;;;;;5.20;1.95;;;;;;;;;;4989271;28;20062;-77
2024/04/05 04:34:24;;;;;;;9.50;2.58;;;;;;;;;;4991662;28;20555;-77
2024/04/05 04:36:50;;;;;;;4.32;2.10;;;;;;;;;;4992165;28;20071;-78
2024/04/05 04:39:15;;;;;;;6.10;2.35;;;;;;;;;;4969147;28;20030;-78
2024/04/05 04:41:42;;;;;;;4.55;1.98;;;;;;;;;;4995716;28;20034;-77
2024/04/05 04:44:08;;;;;;;6.82;2.60;;;;;;;;;;4992723;28;20049;-78
2024/04/05 04:46:34;;;;;;;3.13;1.65;;;;;;;;;;4990216;28;20053;-77
2024/04/05 04:49:00;;;;;;;6.03;2.33;;;;;;;;;;5002060;28;20045;-79
2024/04/05 04:51:26;;;;;;;6.32;2.78;;;;;;;;;;4991061;28;20038;-78
2024/04/05 04:53:53;;;;;;;6.47;2.35;;;;;;;;;;4986047;28;20601;-77
2024/04/05 04:56:18;;;;;;;7.80;2.97;;;;;;;;;;4984705;28;20655;-79
2024/04/05 04:58:44;;;;;;;3.35;1.50;;;;;;;;;;4988189;28;20180;-78
2024/04/05 05:01:10;;;;;;;3.22;1.95;;;;;;;;;;5001674;28;20814;-78
2024/04/05 05:03:35;;;;;;;5.57;2.53;;;;;;;;;;4995891;28;20081;-78
2024/04/05 05:06:01;;;;;;;8.82;2.20;;;;;;;;;;4999200;28;20559;-78
2024/04/05 05:08:28;;;;;;;9.60;2.88;;;;;;;;;;4991983;28;20042;-77
2024/04/05 05:10:53;;;;;;;6.07;2.22;;;;;;;;;;4990853;28;20683;-78
2024/04/05 05:13:19;;;;;;;6.50;2.35;;;;;;;;;;4991856;28;20049;-76
2024/04/05 05:15:44;;;;;;;6.68;2.63;;;;;;;;;;4982838;28;20460;-76
2024/04/05 05:18:10;;;;;;;7.43;3.08;;;;;;;;;;4983426;28;20048;-77
2024/04/05 05:20:44;;;;;;;5.22;1.70;;;;;;;;;;4956602;28;20073;-77
2024/04/05 05:23:09;;;;;;;4.28;1.70;;;;;;;;;;4962253;28;20050;-77
2024/04/05 05:25:35;;;;;;;4.80;2.45;;;;;;;;;;4982464;28;20044;-77
2024/04/05 05:28:00;;;;;;;11.40;2.80;;;;;;;;;;4979935;28;20875;-77
2024/04/05 05:30:26;;;;;;;5.60;2.53;;;;;;;;;;4965847;28;20121;-77
2024/04/05 05:32:53;;;;;;;2.55;1.17;;;;;;;;;;4982446;28;20068;-76
2024/04/05 05:35:18;;;;;;;5.53;2.20;;;;;;;;;;4952749;28;20762;-78
2024/04/05 05:37:43;;;;;;;6.50;2.80;;;;;;;;;;4986641;28;20038;-76
2024/04/05 05:40:09;;;;;;;7.35;2.65;;;;;;;;;;4986821;28;20597;-77
2024/04/05 05:42:35;;;;;;;4.13;1.27;;;;;;;;;;4984595;28;20041;-77
2024/04/05 05:45:00;;;;;;;6.88;2.83;;;;;;;;;;4980694;28;20065;-77
2024/04/05 05:47:26;;;;;;;8.00;2.88;;;;;;;;;;5000187;28;20499;-77
2024/04/05 05:49:52;;;;;;;6.45;2.60;;;;;;;;;;4981168;28;20033;-76
2024/04/05 05:52:18;;;;;;;6.22;2.40;;;;;;;;;;4981418;28;20038;-77
2024/04/05 05:54:43;;;;;;;2.83;1.70;;;;;;;;;;5003518;28;20525;-77
2024/04/05 05:57:09;;;;;;;7.88;2.10;;;;;;;;;;4988653;28;20043;-77
2024/04/05 05:59:34;;;;;;;5.88;2.60;;;;;;;;;;4974272;28;20088;-77
2024/04/05 06:01:59;;;;;;;6.63;2.95;;;;;;;;;;4985897;28;20787;-78
2024/04/05 06:04:25;;;;;;;3.38;1.55;;;;;;;;;;4985320;28;20037;-76
2024/04/05 06:06:51;;;;;;;3.83;1.60;;;;;;;;;;4981151;28;20030;-77
2024/04/05 06:09:17;;;;;;;3.65;1.55;;;;;;;;;;4984333;28;20081;-78
2024/04/05 06:11:43;;;;;;;5.35;1.95;;;;;;;;;;4980183;28;20050;-77
2024/04/05 06:14:08;;;;;;;2.25;1.25;;;;;;;;;;4980679;28;20050;-77
2024/04/05 06:16:34;;;;;;;4.13;1.48;;;;;;;;;;4991834;28;20030;-77
2024/04/05 06:18:59;;;;;;;4.47;2.65;;;;;;;;;;4984634;28;20026;-77
2024/04/05 06:21:25;;;;;;;2.47;1.38;;;;;;;;;;4986072;28;20026;-77
2024/04/05 06:23:50;;;;;;;8.75;2.53;;;;;;;;;;4982892;28;20507;-77
2024/04/05 06:26:16;;;;;;;4.65;2.33;;;;;;;;;;4982589;28;20026;-78
2024/04/05 06:28:41;;;;;;;1.92;1.30;;;;;;;;;;4975454;28;20461;-76
2024/04/05 06:31:06;;;;;;;6.45;1.75;;;;;;;;;;4979556;28;20041;-76
2024/04/05 06:33:32;;;;;;;6.75;2.20;;;;;;;;;;4968726;28;20070;-77
2024/04/05 06:36:01;;;;;;;4.97;2.10;;;;;;;;;;4967312;28;20030;-77
2024/04/05 06:38:28;;;;;;;4.00;1.35;;;;;;;;;;4981105;28;20161;-76
2024/04/05 06:40:57;;;;;;;4.30;1.65;;;;;;;;;;4977272;28;20030;-77
2024/04/05 06:43:24;;;;;;;2.20;1.83;;;;;;;;;;4972610;28;20026;-76
2024/04/05 06:46:00;;;;;;;7.13;2.40;;;;;;;;;;4973199;28;20041;-76
2024/04/05 06:48:26;;;;;;;1.70;0.85;;;;;;;;;;4984451;28;20452;-77
2024/04/05 06:50:52;;;;;;;2.47;1.60;;;;;;;;;;4974010;28;20027;-77
2024/04/05 06:53:24;;;;;;;6.60;2.53;;;;;;;;;;4981254;28;20040;-76
2024/04/05 06:55:50;;;;;;;8.05;2.58;;;;;;;;;;4984996;28;20718;-77
2024/04/05 06:58:17;;;;;;;4.47;2.05;;;;;;;;;;4979755;28;20249;-76
2024/04/05 07:00:42;;;;;;;1.58;0.90;;;;;;;;;;4987228;28;20029;-77
2024/04/05 07:03:08;;;;;;;2.63;1.15;;;;;;;;;;4982168;28;20018;-77
2024/04/05 07:05:33;;;;;;;7.03;2.25;;;;;;;;;;4981078;28;20078;-77
2024/04/05 07:07:59;;;;;;;7.88;2.35;;;;;;;;;;4985040;28;20053;-76
2024/04/05 07:10:24;;;;;;;4.13;2.28;;;;;;;;;;4980585;28;20112;-77
2024/04/05 07:12:53;;;;;;;4.18;1.90;;;;;;;;;;4979551;28;20072;-77
2024/04/05 07:15:22;;;;;;;5.10;1.70;;;;;;;;;;4979840;28;20039;-77
2024/04/05 07:17:54;;;;;;;8.85;1.63;;;;;;;;;;4987463;28;20057;-77
2024/04/05 07:20:21;;;;;;;7.35;1.90;;;;;;;;;;4986029;28;20034;-77
2024/04/05 07:22:47;;;;;;;2.80;1.00;;;;;;;;;;4977340;28;20034;-77
2024/04/05 07:25:13;;;;;;;7.90;2.10;;;;;;;;;;4973678;28;20395;-77
2024/04/05 07:27:39;;;;;;;2.90;1.27;;;;;;;;;;4983648;28;20639;-77
2024/04/05 07:30:05;;;;;;;6.45;1.80;;;;;;;;;;4989798;28;20041;-76
2024/04/05 07:32:31;;;;;;;5.18;1.65;;;;;;;;;;4984467;28;20034;-76
2024/04/05 07:34:56;;;;;;;5.93;1.85;;;;;;;;;;4984566;28;20053;-77
2024/04/05 07:37:22;;;;;;;5.60;1.95;;;;;;;;;;4984028;28;20053;-77
2024/04/05 07:39:50;;;;;;;13.80;2.63;;;;;;;;;;4985255;28;20023;-77
2024/04/05 07:42:16;;;;;;;1.98;1.40;;;;;;;;;;4977837;28;20189;-77
2024/04/05 07:44:43;;;;;;;5.32;1.70;;;;;;;;;;4981438;28;20504;-77
2024/04/05 07:47:08;;;;;;;5.65;1.77;;;;;;;;;;4987938;28;20044;-77
2024/04/05 07:49:34;;;;;;;5.45;1.80;;;;;;;;;;4984317;28;20101;-76
2024/04/05 07:51:59;;;;;;;4.95;1.85;;;;;;;;;;4976912;28;20033;-76
2024/04/05 07:54:25;;;;;;;3.00;1.50;;;;;;;;;;4975897;28;20755;-77
2024/04/05 07:56:52;;;;;;;4.63;1.60;;;;;;;;;;4983395;28;20022;-77
2024/04/05 07:59:17;;;;;;;2.10;1.27;;;;;;;;;;4982371;28;20025;-77
2024/04/05 08:01:44;;;;;;;2.58;1.60;;;;;;;;;;4987926;28;20030;-77
2024/04/05 08:04:09;;;;;;;3.30;1.52;;;;;;;;;;4979305;28;20022;-77
2024/04/05 08:06:35;;;;;;;2.05;1.10;;;;;;;;;;4979810;28;20445;-77
2024/04/05 08:09:01;;;;;;;3.75;1.52;;;;;;;;;;4976698;28;20084;-77
2024/04/05 08:11:26;;;;;;;6.10;1.45;;;;;;;;;;4989114;28;20072;-77
2024/04/05 08:13:51;;;;;;;3.42;1.25;;;;;;;;;;4976529;28;20633;-77
2024/04/05 08:16:18;;;;;;;1.75;1.48;;;;;;;;;;4977406;28;20415;-77
2024/04/05 08:18:43;;;;;;;6.75;1.48;;;;;;;;;;4981915;28;20035;-77
2024/04/05 08:21:08;;;;;;;2.88;1.30;;;;;;;;;;4979449;28;20051;-77
2024/04/05 08:23:34;;;;;;;2.33;1.38;;;;;;;;;;4985513;28;20038;-76
2024/04/05 08:26:00;;;;;;;5.03;1.33;;;;;;;;;;4977934;28;20026;-77
2024/04/05 08:28:27;;;;;;;4.32;1.70;;;;;;;;;;4981508;28;20033;-77
2024/04/05 08:30:52;;;;;;;4.57;1.30;;;;;;;;;;4983525;28;20026;-77
2024/04/05 08:33:18;;;;;;;2.22;1.20;;;;;;;;;;4990482;28;20022;-77
2024/04/05 08:35:51;;;;;;;6.30;1.30;;;;;;;;;;4981179;28;20038;-77
2024/04/05 08:38:16;;;;;;;4.43;1.48;;;;;;;;;;4982704;28;20546;-77
2024/04/05 08:40:42;;;;;;;1.88;1.10;;;;;;;;;;4986695;28;20022;-77
2024/04/05 08:43:09;;;;;;;5.60;1.63;;;;;;;;;;4974458;28;20015;-77
2024/04/05 08:45:35;;;;;;;3.30;1.35;;;;;;;;;;4982409;28;20029;-77
2024/04/05 08:48:07;;;;;;;2.80;1.30;;;;;;;;;;4975234;28;20637;-77
2024/04/05 08:50:34;;;;;;;3.65;1.13;;;;;;;;;;4973338;28;20018;-77
2024/04/05 08:52:59;;;;;;;5.28;1.00;;;;;;;;;;4973725;28;20022;-77
2024/04/05 08:55:25;;;;;;;3.38;1.33;;;;;;;;;;4971367;28;20030;-77
2024/04/05 08:57:51;;;;;;;6.07;1.52;;;;;;;;;;4977848;28;20573;-77
2024/04/05 09:00:23;;;;;;;3.03;1.00;;;;;;;;;;4984724;28;20045;-78
2024/04/05 09:02:51;;;;;;;5.63;1.05;;;;;;;;;;4975219;28;20110;-78
2024/04/05 09:05:17;;;;;;;4.93;1.40;;;;;;;;;;4981001;28;20450;-78
2024/04/05 09:07:42;;;;;;;5.80;1.50;;;;;;;;;;4981489;28;20045;-77
2024/04/05 09:10:14;;;;;;;2.80;1.17;;;;;;;;;;4985170;28;20027;-77
2024/04/05 09:12:51;;;;;;;5.00;1.58;;;;;;;;;;4983260;28;20033;-77
2024/04/05 09:15:21;;;;;;;5.95;1.50;;;;;;;;;;4985853;28;20037;-77
2024/04/05 09:17:50;;;;;;;1.73;1.40;;;;;;;;;;4985061;28;20101;-77
2024/04/05 09:20:29;;;;;;;4.03;1.42;;;;;;;;;;4990557;28;20280;-77
2024/04/05 09:23:02;;;;;;;5.07;1.60;;;;;;;;;;4984027;28;20023;-78
2024/04/05 09:25:32;;;;;;;7.70;1.90;;;;;;;;;;4986621;28;20519;-77
2024/04/05 09:28:13;;;;;;;7.45;1.33;;;;;;;;;;4983605;28;20073;-77
2024/04/05 09:30:39;;;;;;;1.95;1.05;;;;;;;;;;4987423;28;20030;-77
2024/04/05 09:33:05;;;;;;;1.80;0.95;;;;;;;;;;4984266;28;20615;-78
2024/04/05 09:35:31;;;;;;;4.60;1.48;;;;;;;;;;4983095;28;20105;-77
2024/04/05 09:37:56;;;;;;;3.40;1.10;;;;;;;;;;4987091;28;20101;-77
2024/04/05 09:40:25;;;;;;;2.33;1.35;;;;;;;;;;4983017;28;20023;-77
2024/04/05 09:42:52;;;;;;;3.22;1.20;;;;;;;;;;4984681;28;20038;-76
2024/04/05 09:45:21;;;;;;;2.67;1.30;;;;;;;;;;4981331;28;20033;-77
2024/04/05 09:47:48;;;;;;;2.58;0.95;;;;;;;;;;4987556;28;20029;-77
2024/04/05 09:50:14;;;;;;;6.03;1.20;;;;;;;;;;4981652;28;20628;-77
2024/04/05 09:52:43;;;;;;;1.80;0.90;;;;;;;;;;4986211;28;20037;-78
2024/04/05 09:55:16;;;;;;;3.63;1.10;;;;;;;;;;4973730;28;20023;-78
2024/04/05 09:57:45;;;;;;;2.13;0.88;;;;;;;;;;4986850;28;20033;-78
2024/04/05 10:00:14;;;;;;;5.20;1.25;;;;;;;;;;4980205;28;20038;-77
2024/04/05 10:03:00;;;;;;;4.22;1.30;;;;;;;;;;4988351;28;20033;-78
2024/04/05 10:05:28;;;;;;;2.38;0.90;;;;;;;;;;4975189;28;20045;-78
2024/04/05 10:07:54;;;;;;;1.15;0.73;;;;;;;;;;4976354;28;20019;-77
2024/04/05 10:10:32;;;;;;;3.55;1.10;;;;;;;;;;4981925;28;20102;-77
2024/04/05 10:13:12;;;;;;;4.18;1.38;;;;;;;;;;4975845;28;20113;-78
2024/04/05 10:15:37;;;;;;;2.80;1.33;;;;;;;;;;4986772;28;20026;-78
2024/04/05 10:18:06;;;;;;;4.22;1.17;;;;;;;;;;4989723;28;20041;-78
2024/04/05 10:20:33;;;;;;;3.03;1.17;;;;;;;;;;4983776;28;20014;-77
2024/04/05 10:22:59;;;;;;;3.28;1.20;;;;;;;;;;4985609;28;20217;-77
2024/04/05 10:25:25;;;;;;;4.90;1.20;;;;;;;;;;4975742;28;20026;-77
2024/04/05 10:27:56;;;;;;;2.88;1.00;;;;;;;;;;4982975;28;20472;-77
2024/04/05 10:30:22;;;;;;;2.13;0.90;;;;;;;;;;4977013;28;20029;-78
2024/04/05 10:32:58;;;;;;;4.03;1.00;;;;;;;;;;4978719;28;20149;-77
2024/04/05 10:35:23;;;;;;;3.47;1.30;;;;;;;;;;4981089;28;20069;-77
2024/04/05 10:37:59;;;;;;;5.93;1.45;;;;;;;;;;4987662;28;20053;-77
2024/04/05 10:40:25;;;;;;;2.58;1.23;;;;;;;;;;4987045;28;20049;-76
2024/04/05 10:42:51;;;;;;;2.85;1.38;;;;;;;;;;4982481;28;20499;-77
2024/04/05 10:45:18;;;;;;;3.13;1.00;;;;;;;;;;4982323;28;20026;-77
2024/04/05 10:47:53;;;;;;;1.73;1.20;;;;;;;;;;4989058;28;20453;-77
2024/04/05 10:50:21;;;;;;;4.40;1.20;;;;;;;;;;4989327;28;20105;-77
2024/04/05 10:52:53;;;;;;;4.07;0.98;;;;;;;;;;4971412;28;20037;-78
2024/04/05 10:55:19;;;;;;;4.45;1.27;;;;;;;;;;4981416;28;20046;-77
2024/04/05 10:57:45;;;;;;;4.50;1.15;;;;;;;;;;4983445;28;20026;-77
2024/04/05 11:00:12;;;;;;;3.33;1.20;;;;;;;;;;4986376;28;20030;-77
2024/04/05 11:02:42;;;;;;;2.65;1.20;;;;;;;;;;4980698;28;20049;-78
2024/04/05 11:05:10;;;;;;;1.50;1.20;;;;;;;;;;4983107;28;20754;-78
2024/04/05 11:07:37;;;;;;;2.13;1.25;;;;;;;;;;4979401;28;20022;-77
2024/04/05 11:10:23;;;;;;;1.85;1.27;;;;;;;;;;4981334;28;20015;-78
2024/04/05 11:12:48;;;;;;;4.03;1.23;;;;;;;;;;4975527;28;20038;-77
2024/04/05 11:15:23;;;;;;;3.95;1.20;;;;;;;;;;4982471;28;20026;-77
2024/04/05 11:17:58;;;;;;;2.28;1.10;;;;;;;;;;4986441;28;20042;-78
2024/04/05 11:20:26;;;;;;;5.10;1.02;;;;;;;;;;4985083;28;20057;-77
2024/04/05 11:23:19;;;;;;;2.90;1.42;;;;;;;;;;4975258;28;20041;-77
2024/04/05 11:25:55;;;;;;;2.45;1.10;;;;;;;;;;4969764;28;20038;-78
2024/04/05 11:28:23;;;;;;;2.33;0.90;;;;;;;;;;4979856;28;20046;-77
2024/04/05 11:30:49;;;;;;;3.35;1.30;;;;;;;;;;4976675;28;20461;-77
2024/04/05 11:33:14;;;;;;;3.42;1.50;;;;;;;;;;4978493;28;20044;-78
2024/04/05 11:35:40;;;;;;;3.55;1.38;;;;;;;;;;4964816;28;20136;-77
2024/04/05 11:38:05;;;;;;;3.10;1.40;;;;;;;;;;4978888;28;20088;-78
2024/04/05 11:40:31;;;;;;;2.28;1.20;;;;;;;;;;4972155;28;20023;-77
2024/04/05 11:42:57;;;;;;;3.47;1.10;;;;;;;;;;4981130;28;20018;-77
2024/04/05 11:45:23;;;;;;;3.72;1.40;;;;;;;;;;4979689;28;20030;-77
2024/04/05 11:47:49;;;;;;;3.80;1.40;;;;;;;;;;4981029;28;20026;-77
2024/04/05 11:50:14;;;;;;;1.73;1.08;;;;;;;;;;4977256;28;20025;-77
2024/04/05 11:52:40;;;;;;;2.33;1.30;;;;;;;;;;4973536;28;20502;-77
2024/04/05 11:55:06;;;;;;;2.60;1.40;;;;;;;;;;4980606;28;20128;-77
2024/04/05 11:57:32;;;;;;;3.22;1.30;;;;;;;;;;4982951;28;20117;-77
2024/04/05 11:59:57;;;;;;;2.45;1.50;;;;;;;;;;4982530;28;20435;-77
2024/04/05 12:02:23;;;;;;;4.72;1.30;;;;;;;;;;4973194;28;20030;-77
2024/04/05 12:04:49;;;;;;;4.00;1.20;;;;;;;;;;4977112;28;20038;-77
2024/04/05 12:07:14;;;;;;;2.75;1.00;;;;;;;;;;4978538;28;20026;-78
2024/04/05 12:09:40;;;;;;;3.70;0.98;;;;;;;;;;4987474;28;20062;-77
2024/04/05 12:12:05;;;;;;;2.55;1.10;;;;;;;;;;4979785;28;20027;-78
2024/04/05 12:14:33;;;;;;;2.85;1.30;;;;;;;;;;4981895;28;20120;-77
2024/04/05 12:17:02;;;;;;;2.30;1.00;;;;;;;;;;4979740;28;20041;-77
2024/04/05 12:19:28;;;;;;;2.78;1.10;;;;;;;;;;4975610;28;20027;-77
2024/04/05 12:21:54;;;;;;;1.98;0.90;;;;;;;;;;4984408;28;20036;-77
2024/04/05 12:24:19;;;;;;;4.10;0.93;;;;;;;;;;4980585;28;20034;-77
2024/04/05 12:26:45;;;;;;;3.80;1.45;;;;;;;;;;4977651;28;20033;-77
2024/04/05 12:29:10;;;;;;;2.08;0.80;;;;;;;;;;4980195;28;20030;-77
2024/04/05 12:31:36;;;;;;;2.67;0.90;;;;;;;;;;4958306;28;20039;-77
2024/04/05 12:34:01;;;;;;;1.35;0.80;;;;;;;;;;4976629;28;20193;-77
2024/04/05 12:36:26;;;;;;;2.00;0.80;;;;;;;;;;4977469;28;20431;-78
2024/04/05 12:38:58;;;;;;;3.33;0.98;;;;;;;;;;4977934;28;20035;-77
2024/04/05 12:41:24;;;;;;;2.42;0.65;;;;;;;;;;4998154;28;20022;-78
2024/04/05 12:43:50;;;;;;;3.60;1.30;;;;;;;;;;4977954;28;20033;-77
2024/04/05 12:46:16;;;;;;;3.72;0.80;;;;;;;;;;4981460;28;20034;-77
2024/04/05 12:48:41;;;;;;;3.03;0.88;;;;;;;;;;4978304;28;20030;-78
2024/04/05 12:51:07;;;;;;;1.85;0.75;;;;;;;;;;4976850;28;21198;-77
2024/04/05 12:53:32;;;;;;;4.65;1.05;;;;;;;;;;4978993;28;20030;-78
2024/04/05 12:56:00;;;;;;;2.95;0.90;;;;;;;;;;4982337;28;20567;-77
2024/04/05 12:58:33;;;;;;;1.20;0.70;;;;;;;;;;4981630;28;20399;-77
2024/04/05 13:01:06;;;;;;;1.85;0.70;;;;;;;;;;4983353;28;20020;-78
2024/04/05 13:03:32;;;;;;;2.33;0.70;;;;;;;;;;4982086;28;20038;-78
2024/04/05 13:06:23;;;;;;;2.38;0.73;;;;;;;;;;4984089;28;20026;-77
2024/04/05 13:08:48;;;;;;;1.77;0.70;;;;;;;;;;4986867;28;20077;-77
2024/04/05 13:11:16;;;;;;;0.77;0.60;;;;;;;;;;4991585;28;20062;-78
2024/04/05 13:13:42;;;;;;;3.92;0.90;;;;;;;;;;4982069;28;20442;-78
2024/04/05 13:16:09;;;;;;;3.13;0.80;;;;;;;;;;4979656;28;20031;-78
2024/04/05 13:18:36;;;;;;;3.70;0.90;;;;;;;;;;4971871;28;20034;-77
2024/04/05 13:21:13;;;;;;;1.70;0.80;;;;;;;;;;4981683;28;20042;-78
2024/04/05 13:24:01;;;;;;;1.85;0.82;;;;;;;;;;4979431;28;20045;-78
2024/04/05 13:26:26;;;;;;;1.10;0.80;;;;;;;;;;4980573;28;20118;-78
2024/04/05 13:28:53;;;;;;;2.53;0.88;;;;;;;;;;4981763;28;20166;-77
2024/04/05 13:31:21;;;;;;;1.40;0.70;;;;;;;;;;4980931;28;20061;-77
2024/04/05 13:33:50;;;;;;;2.97;0.90;;;;;;;;;;4977373;28;20491;-77
2024/04/05 13:36:17;;;;;;;2.85;0.75;;;;;;;;;;4979588;28;20423;-77
2024/04/05 13:38:43;;;;;;;1.67;0.68;;;;;;;;;;4978456;28;20027;-77
2024/04/05 13:41:09;;;;;;;2.05;0.77;;;;;;;;;;4981451;28;20038;-77
2024/04/05 13:43:35;;;;;;;1.60;0.85;;;;;;;;;;4979977;28;20033;-77
2024/04/05 13:46:16;;;;;;;2.08;0.80;;;;;;;;;;4980020;28;20664;-77
2024/04/05 13:48:45;;;;;;;1.90;0.75;;;;;;;;;;4981055;28;20109;-77
2024/04/05 13:51:14;;;;;;;0.88;0.80;;;;;;;;;;4982107;28;20034;-78
2024/04/05 13:53:40;;;;;;;2.92;0.82;;;;;;;;;;4977443;28;20039;-77
2024/04/05 13:56:06;;;;;;;2.35;0.95;;;;;;;;;;4975148;28;20034;-77
2024/04/05 13:58:33;;;;;;;1.63;0.75;;;;;;;;;;4979299;28;20026;-77
2024/04/05 14:01:00;;;;;;;4.28;0.77;;;;;;;;;;4983436;28;20026;-78
2024/04/05 14:03:26;;;;;;;1.75;0.82;;;;;;;;;;4978660;28;20048;-77
2024/04/05 14:05:51;;;;;;;1.63;0.90;;;;;;;;;;4979325;28;20040;-77
2024/04/05 14:08:18;;;;;;;1.83;0.60;;;;;;;;;;4978581;28;20112;-77
2024/04/05 14:10:44;;;;;;;2.40;0.77;;;;;;;;;;4977779;28;20019;-77
2024/04/05 14:13:10;;;;;;;0.85;0.70;;;;;;;;;;4974235;28;20030;-77
2024/04/05 14:15:35;;;;;;;2.70;1.02;;;;;;;;;;4977044;28;20045;-77
2024/04/05 14:18:01;;;;;;;3.22;1.17;;;;;;;;;;4984668;28;20062;-77
2024/04/05 14:20:26;;;;;;;2.88;0.70;;;;;;;;;;4980352;28;20070;-77
2024/04/05 14:22:52;;;;;;;2.25;1.00;;;;;;;;;;4977996;28;20030;-78
2024/04/05 14:25:17;;;;;;;1.13;0.73;;;;;;;;;;4977424;28;20537;-76
2024/04/05 14:27:42;;;;;;;1.73;0.77;;;;;;;;;;4980426;28;20144;-77
2024/04/05 14:30:08;;;;;;;2.47;1.25;;;;;;;;;;4978669;28;20030;-77
2024/04/05 14:32:35;;;;;;;2.20;0.80;;;;;;;;;;4978758;28;20034;-78
2024/04/05 14:35:00;;;;;;;2.90;0.90;;;;;;;;;;4977856;28;20616;-77
2024/04/05 14:37:25;;;;;;;2.58;1.00;;;;;;;;;;4983601;28;20033;-77
2024/04/05 14:39:51;;;;;;;0.93;0.65;;;;;;;;;;4985561;28;20161;-77
2024/04/05 14:42:17;;;;;;;3.08;1.00;;;;;;;;;;4983420;28;20022;-77